Terminal Aerodrome Forecast
Issued by NWS

Current Version | Previous Version | Text Only | Print | Product List | Glossary On
Versions: 1 2 3 4 5 6 7 8 9 10 11 12 13 14 15 16 17 18 19 20 21 22
000
FTUS41 KGYX 020520
TAFPSM
TAF
KPSM 020520Z 0206/0306 25004KT P6SM FEW080
     FM021300 26007KT P6SM SKC
     FM021800 21010KT P6SM SCT060
     FM030000 21004KT P6SM SCT060=

USA.gov is the U.S. government's official web portal to all federal, state and local government web resources and services.